createdAt,value
2023-10-18T00:00:15.480Z,2.6
2023-10-18T00:01:15.535Z,2.8
2023-10-18T00:02:15.496Z,2.1
2023-10-18T00:03:15.593Z,2.9
2023-10-18T00:04:15.586Z,2.9
2023-10-18T00:05:15.508Z,2.6
2023-10-18T00:06:15.450Z,3
2023-10-18T00:07:15.546Z,3.3
2023-10-18T00:08:15.507Z,3.2
2023-10-18T00:09:15.508Z,4.1
2023-10-18T00:10:15.575Z,4.9
2023-10-18T00:11:15.491Z,5.2
2023-10-18T00:12:15.470Z,4.6
2023-10-18T00:13:15.539Z,4.1
2023-10-18T00:14:15.508Z,4.7
2023-10-18T00:15:15.457Z,4.1
2023-10-18T00:16:15.512Z,3.8
2023-10-18T00:17:15.469Z,4.4
2023-10-18T00:18:15.644Z,3.7
2023-10-18T00:19:15.524Z,3.6
2023-10-18T00:20:15.492Z,3.7
2023-10-18T00:21:15.469Z,3.4
2023-10-18T00:22:15.556Z,4.4
2023-10-18T00:23:15.535Z,4.6
2023-10-18T00:24:15.510Z,3.8
2023-10-18T00:25:15.553Z,4
2023-10-18T00:26:15.511Z,3.6
2023-10-18T00:27:15.507Z,3.7
2023-10-18T00:28:15.539Z,3.2
2023-10-18T00:29:15.495Z,4
2023-10-18T00:30:15.511Z,4.4
2023-10-18T00:31:15.576Z,2.7
2023-10-18T00:32:15.510Z,3.7
2023-10-18T00:33:15.453Z,3.6
2023-10-18T00:34:15.531Z,2.7
2023-10-18T00:35:15.495Z,3.8
2023-10-18T00:36:15.474Z,3
2023-10-18T00:37:15.503Z,3.1
2023-10-18T00:38:15.493Z,4
2023-10-18T00:39:15.519Z,2.9
2023-10-18T00:40:15.510Z,2.7
2023-10-18T00:41:15.514Z,2.8
2023-10-18T00:42:15.510Z,3.6
2023-10-18T00:43:15.748Z,3.2
2023-10-18T00:44:15.506Z,3.5
2023-10-18T00:45:15.489Z,3.2
2023-10-18T00:46:15.681Z,3.2
2023-10-18T00:47:15.494Z,4.4
2023-10-18T00:48:15.529Z,4.7
2023-10-18T00:49:15.859Z,4.6
2023-10-18T00:50:15.526Z,3.7
2023-10-18T00:51:15.494Z,3.9
2023-10-18T00:52:15.516Z,3
2023-10-18T00:53:15.491Z,4.1
2023-10-18T00:54:15.489Z,4.2
2023-10-18T00:55:15.569Z,3.6
2023-10-18T00:56:15.498Z,3.1
2023-10-18T00:57:16.445Z,5.5
2023-10-18T00:58:15.523Z,3.4
2023-10-18T00:59:15.517Z,3
2023-10-18T01:00:15.478Z,3.1
2023-10-18T01:01:15.518Z,4.1
2023-10-18T01:02:15.520Z,3.3
2023-10-18T01:03:15.552Z,3.4
2023-10-18T01:04:15.618Z,3.3
2023-10-18T01:05:15.474Z,3
2023-10-18T01:06:15.511Z,4.6
2023-10-18T01:07:15.567Z,3.2
2023-10-18T01:08:15.490Z,4.1
2023-10-18T01:09:15.500Z,3.7
2023-10-18T01:10:15.575Z,4.8
2023-10-18T01:11:15.525Z,3.8
2023-10-18T01:12:15.520Z,4.8
2023-10-18T01:13:15.533Z,4
2023-10-18T01:14:15.499Z,4.2
2023-10-18T01:15:15.531Z,3.5
2023-10-18T01:16:15.751Z,4
2023-10-18T01:17:15.513Z,3.4
2023-10-18T01:18:15.486Z,3.8
2023-10-18T01:19:15.526Z,3.5
2023-10-18T01:20:15.515Z,4.2
2023-10-18T01:21:15.500Z,4
2023-10-18T01:22:15.528Z,4.1
2023-10-18T01:23:15.499Z,5.7
2023-10-18T01:24:15.560Z,4.6
2023-10-18T01:25:15.552Z,4.1
2023-10-18T01:26:15.514Z,4
2023-10-18T01:27:15.508Z,4.7
2023-10-18T01:28:15.569Z,4.4
2023-10-18T01:29:15.495Z,4.3
2023-10-18T01:30:15.490Z,5.2
2023-10-18T01:31:15.598Z,4
2023-10-18T01:32:15.511Z,4.1
2023-10-18T01:33:15.493Z,4
2023-10-18T01:34:15.506Z,4.2
2023-10-18T01:35:15.512Z,4
2023-10-18T01:36:15.507Z,4.1
2023-10-18T01:37:15.512Z,3.9
2023-10-18T01:38:15.529Z,3.7
2023-10-18T01:39:15.457Z,4.2
2023-10-18T01:40:15.578Z,5
2023-10-18T01:41:15.519Z,3.4
2023-10-18T01:42:15.525Z,4
2023-10-18T01:43:15.566Z,4.2
2023-10-18T01:44:15.502Z,4.5
2023-10-18T01:45:15.505Z,4
2023-10-18T01:46:15.597Z,4.3
2023-10-18T01:47:15.542Z,4.2
2023-10-18T01:48:15.534Z,3.8
2023-10-18T01:49:15.543Z,3.9
2023-10-18T01:50:15.475Z,3.8
2023-10-18T01:51:15.513Z,5.7
2023-10-18T01:52:15.557Z,4.6
2023-10-18T01:53:15.513Z,4.5
2023-10-18T01:54:15.538Z,4.2
2023-10-18T01:55:15.490Z,3.7
2023-10-18T01:56:15.479Z,4.6
2023-10-18T01:57:15.515Z,3.6
2023-10-18T01:58:15.578Z,3.8
2023-10-18T01:59:15.526Z,3.7
2023-10-18T02:00:15.516Z,4.3
2023-10-18T02:01:15.568Z,4.5
2023-10-18T02:02:15.510Z,4.4
2023-10-18T02:03:15.572Z,5.2
2023-10-18T02:04:15.535Z,4.4
2023-10-18T02:05:15.494Z,4.2
2023-10-18T02:06:15.532Z,4.5
2023-10-18T02:07:15.559Z,4
2023-10-18T02:08:15.510Z,4.1
2023-10-18T02:09:15.509Z,3.9
2023-10-18T02:10:15.560Z,4
2023-10-18T02:11:15.477Z,5
2023-10-18T02:12:15.516Z,5.2
2023-10-18T02:13:15.582Z,5.8
2023-10-18T02:14:15.521Z,5.3
2023-10-18T02:15:15.462Z,5.3
2023-10-18T02:16:15.601Z,4.7
2023-10-18T02:17:15.523Z,5
2023-10-18T02:18:15.682Z,4.1
2023-10-18T02:19:15.554Z,4
2023-10-18T02:20:15.512Z,3.7
2023-10-18T02:21:15.466Z,3.2
2023-10-18T02:22:15.547Z,3.2
2023-10-18T02:23:15.499Z,3.2
2023-10-18T02:24:15.493Z,3.3
2023-10-18T02:25:15.520Z,4.2
2023-10-18T02:26:15.483Z,4.4
2023-10-18T02:27:15.494Z,2.9
2023-10-18T02:28:15.494Z,3.4
2023-10-18T02:29:15.497Z,4.1
2023-10-18T02:30:15.514Z,3.3
2023-10-18T02:31:15.515Z,3
2023-10-18T02:32:15.491Z,4
2023-10-18T02:33:15.511Z,4.5
2023-10-18T02:34:28.459Z,4.2
2023-10-18T02:35:15.487Z,3.6
2023-10-18T02:36:15.510Z,3.8
2023-10-18T02:37:15.519Z,4.7
2023-10-18T02:38:15.470Z,3.6
2023-10-18T02:39:15.507Z,4.8
2023-10-18T02:40:15.509Z,3.4
2023-10-18T02:41:15.490Z,2.7
2023-10-18T02:42:15.486Z,4.2
2023-10-18T02:43:15.529Z,3.8
2023-10-18T02:44:15.513Z,3
2023-10-18T02:45:15.648Z,2.8
2023-10-18T02:46:15.520Z,3
2023-10-18T02:47:15.463Z,3.9
2023-10-18T02:48:15.484Z,3.6
2023-10-18T02:49:15.547Z,2.5
2023-10-18T02:50:15.808Z,2.6
2023-10-18T02:51:15.481Z,2.8
2023-10-18T02:52:15.549Z,3.1
2023-10-18T02:53:15.489Z,3
2023-10-18T02:54:15.498Z,2.2
2023-10-18T02:55:15.507Z,3.1
2023-10-18T02:56:15.462Z,3.5
2023-10-18T02:57:15.480Z,3.1
2023-10-18T02:58:15.585Z,4.3
2023-10-18T02:59:15.443Z,3.4
2023-10-18T03:00:15.497Z,3
2023-10-18T03:01:15.625Z,4.1
2023-10-18T03:02:15.479Z,4
2023-10-18T03:03:15.484Z,5.4
2023-10-18T03:04:15.596Z,4.7
2023-10-18T03:05:15.498Z,3.1
2023-10-18T03:06:15.702Z,2.4
2023-10-18T03:07:15.608Z,2.6
2023-10-18T03:08:15.464Z,1.7
2023-10-18T03:09:15.478Z,1.3
2023-10-18T03:10:15.527Z,1.6
2023-10-18T03:11:15.481Z,1.5
2023-10-18T03:12:15.470Z,1.7
2023-10-18T03:13:15.487Z,2.6
2023-10-18T03:14:15.471Z,2.2
2023-10-18T03:15:15.500Z,3.5
2023-10-18T03:16:15.546Z,4
2023-10-18T03:17:15.539Z,4
2023-10-18T03:18:15.519Z,3.6
2023-10-18T03:19:15.495Z,3
2023-10-18T03:20:15.480Z,3.2
2023-10-18T03:21:15.494Z,2.3
2023-10-18T03:22:15.495Z,2.9
2023-10-18T03:23:15.501Z,3.6
2023-10-18T03:24:15.504Z,3.9
2023-10-18T03:25:15.551Z,2.8
2023-10-18T03:26:15.508Z,3
2023-10-18T03:27:15.461Z,1.5
2023-10-18T03:28:15.547Z,2.5
2023-10-18T03:29:15.477Z,2.5
2023-10-18T03:30:15.507Z,2.7
2023-10-18T03:31:15.518Z,3
2023-10-18T03:32:15.462Z,2.9
2023-10-18T03:33:15.579Z,3.4
2023-10-18T03:34:15.524Z,4.1
2023-10-18T03:35:15.454Z,4.4
2023-10-18T03:36:20.863Z,3.8
2023-10-18T03:37:15.514Z,3.5
2023-10-18T03:38:15.493Z,3.1
2023-10-18T03:39:15.508Z,3.4
2023-10-18T03:40:15.550Z,3.1
2023-10-18T03:41:15.486Z,2.4
2023-10-18T03:42:15.500Z,2.6
2023-10-18T03:43:15.533Z,2.5
2023-10-18T03:44:15.467Z,2.3
2023-10-18T03:45:15.503Z,3.6
2023-10-18T03:46:15.683Z,2.6
2023-10-18T03:47:15.531Z,2.3
2023-10-18T03:48:15.499Z,1.8
2023-10-18T03:49:15.505Z,1.8
2023-10-18T03:50:15.467Z,1.6
2023-10-18T03:51:15.488Z,2.4
2023-10-18T03:52:15.586Z,3.2
2023-10-18T03:53:15.501Z,2.4
2023-10-18T03:54:15.502Z,1.6
2023-10-18T03:55:15.558Z,2.5
2023-10-18T03:56:15.494Z,2.1
2023-10-18T03:57:15.463Z,1.8
2023-10-18T03:58:15.545Z,2.5
2023-10-18T03:59:15.456Z,1.9
2023-10-18T04:00:15.500Z,4
2023-10-18T04:01:15.572Z,5.3
2023-10-18T04:02:15.476Z,5.6
2023-10-18T04:03:15.502Z,5.3
2023-10-18T04:04:15.545Z,3.6
2023-10-18T04:05:15.489Z,4.4
2023-10-18T04:06:15.431Z,2.5
2023-10-18T04:07:15.507Z,1.7
2023-10-18T04:08:15.919Z,1.8
2023-10-18T04:09:15.493Z,2
2023-10-18T04:10:15.468Z,2.9
2023-10-18T04:11:15.490Z,2.2
2023-10-18T04:12:15.474Z,3.4
2023-10-18T04:13:15.754Z,3.2
2023-10-18T04:14:15.466Z,2.4
2023-10-18T04:15:15.450Z,2.9
2023-10-18T04:16:15.521Z,2.1
2023-10-18T04:17:15.485Z,1.6
2023-10-18T04:18:15.483Z,1.7
2023-10-18T04:19:15.522Z,2.2
2023-10-18T04:20:15.465Z,1.5
2023-10-18T04:21:15.495Z,1.3
2023-10-18T04:22:15.508Z,1.8
2023-10-18T04:23:15.483Z,1.9
2023-10-18T04:24:15.511Z,1.5
2023-10-18T04:25:15.659Z,1.4
2023-10-18T04:26:15.472Z,2.1
2023-10-18T04:27:15.475Z,1.6
2023-10-18T04:28:15.534Z,2.3
2023-10-18T04:29:15.483Z,1.2
2023-10-18T04:30:15.470Z,1.3
2023-10-18T04:31:15.575Z,0.6
2023-10-18T04:32:15.445Z,1.3
2023-10-18T04:33:15.532Z,1.8
2023-10-18T04:34:15.593Z,2.2
2023-10-18T04:35:15.481Z,3.8
2023-10-18T04:36:15.485Z,2
2023-10-18T04:37:15.493Z,1.5
2023-10-18T04:38:15.464Z,5.5
2023-10-18T04:39:15.467Z,3.2
2023-10-18T04:40:15.540Z,2.4
2023-10-18T04:41:15.487Z,3.1
2023-10-18T04:42:15.492Z,2.5
2023-10-18T04:43:15.442Z,1.3
2023-10-18T04:44:15.461Z,1
2023-10-18T04:45:15.482Z,-0.5
2023-10-18T04:46:15.552Z,0.2
2023-10-18T04:47:15.644Z,-0.4
2023-10-18T04:48:15.455Z,1.3
2023-10-18T04:49:15.511Z,-0.8
2023-10-18T04:50:15.463Z,0.4
2023-10-18T04:51:15.441Z,0.9
2023-10-18T04:52:15.474Z,-0.4
2023-10-18T04:53:15.443Z,1.9
2023-10-18T04:54:15.437Z,1.6
2023-10-18T04:55:15.556Z,0.9
2023-10-18T04:56:15.459Z,0.6
2023-10-18T04:57:15.435Z,1.1
2023-10-18T04:58:15.524Z,0.7
2023-10-18T04:59:15.463Z,1.8
2023-10-18T05:00:15.492Z,1.5
2023-10-18T05:01:15.553Z,2.4
2023-10-18T05:02:15.500Z,3.9
2023-10-18T05:03:15.560Z,2.1
2023-10-18T05:04:15.562Z,1.3
2023-10-18T05:05:15.472Z,2
2023-10-18T05:06:15.471Z,1.9
2023-10-18T05:07:15.625Z,1.3
2023-10-18T05:08:15.478Z,0.9
2023-10-18T05:09:15.483Z,2.1
2023-10-18T05:10:15.693Z,1.1
2023-10-18T05:11:15.481Z,2
2023-10-18T05:12:15.485Z,0.7
2023-10-18T05:13:15.561Z,0.5
2023-10-18T05:14:15.456Z,0.6
2023-10-18T05:15:15.445Z,-0.2
2023-10-18T05:16:15.551Z,0.4
2023-10-18T05:17:15.569Z,0.1
2023-10-18T05:18:15.486Z,0.2
2023-10-18T05:19:15.492Z,0.9
2023-10-18T05:20:15.466Z,1.3
2023-10-18T05:21:15.482Z,1.4
2023-10-18T05:22:15.571Z,1
2023-10-18T05:23:15.462Z,1.4
2023-10-18T05:24:15.472Z,-0.4
2023-10-18T05:25:15.659Z,0.9
2023-10-18T05:26:15.444Z,1.1
2023-10-18T05:27:15.482Z,1
2023-10-18T05:28:15.467Z,1.7
2023-10-18T05:29:15.470Z,1.1
2023-10-18T05:30:15.483Z,1.7
2023-10-18T05:31:15.489Z,0.5
2023-10-18T05:32:15.507Z,1.1
2023-10-18T05:33:15.490Z,1.9
2023-10-18T05:34:15.543Z,1.3
2023-10-18T05:35:15.495Z,2.1
2023-10-18T05:36:15.484Z,1.1
2023-10-18T05:37:15.573Z,1.1
2023-10-18T05:38:15.491Z,1
2023-10-18T05:39:15.494Z,1.4
2023-10-18T05:40:15.487Z,0.6
2023-10-18T05:41:15.466Z,1
2023-10-18T05:42:15.448Z,1.3
2023-10-18T05:43:15.483Z,1.2
2023-10-18T05:44:15.491Z,1.3
2023-10-18T05:45:15.490Z,2.1
2023-10-18T05:46:15.549Z,1.7
2023-10-18T05:47:15.473Z,1.6
2023-10-18T05:48:15.480Z,1.9
2023-10-18T05:49:15.583Z,0.9
2023-10-18T05:50:15.467Z,2.1
2023-10-18T05:51:20.439Z,2.9
2023-10-18T05:52:15.541Z,1.8
2023-10-18T05:53:15.450Z,1.8
2023-10-18T05:54:15.469Z,0.9
2023-10-18T05:55:15.510Z,1.5
2023-10-18T05:56:15.484Z,2.2
2023-10-18T05:57:15.468Z,2
2023-10-18T05:58:15.508Z,1.7
2023-10-18T05:59:15.482Z,1.4
2023-10-18T06:00:15.495Z,2
2023-10-18T06:01:15.564Z,1.9
2023-10-18T06:02:15.480Z,2
2023-10-18T06:03:15.488Z,2.1
2023-10-18T06:04:15.545Z,2.5
2023-10-18T06:05:15.494Z,2.5
2023-10-18T06:06:15.493Z,2.5
2023-10-18T06:07:15.492Z,2.4
2023-10-18T06:08:15.461Z,3.1
2023-10-18T06:09:15.482Z,3
2023-10-18T06:10:15.457Z,2.9
2023-10-18T06:11:15.476Z,3
2023-10-18T06:12:15.472Z,2.2
2023-10-18T06:13:15.515Z,2.2
2023-10-18T06:14:15.482Z,4.4
2023-10-18T06:15:17.806Z,4.3
2023-10-18T06:16:15.642Z,2.4
2023-10-18T06:17:15.449Z,4.2
2023-10-18T06:18:15.449Z,4.1
2023-10-18T06:19:15.481Z,4.2
2023-10-18T06:20:15.554Z,3.9
2023-10-18T06:21:15.468Z,4.2
2023-10-18T06:22:15.510Z,4.4
2023-10-18T06:23:15.466Z,3.4
2023-10-18T06:24:15.491Z,3.5
2023-10-18T06:25:15.521Z,3.6
2023-10-18T06:26:15.463Z,2.7
2023-10-18T06:27:15.486Z,3.2
2023-10-18T06:28:15.513Z,3.8
2023-10-18T06:29:15.464Z,4
2023-10-18T06:30:15.499Z,3.1
2023-10-18T06:31:15.597Z,3
2023-10-18T06:32:15.515Z,3
2023-10-18T06:33:15.469Z,3.3
2023-10-18T06:34:15.510Z,3
2023-10-18T06:35:15.502Z,3.1
2023-10-18T06:36:15.451Z,3.4
2023-10-18T06:37:15.499Z,3.8
2023-10-18T06:38:15.471Z,5.1
2023-10-18T06:39:15.466Z,4
2023-10-18T06:40:15.518Z,4.1
2023-10-18T06:41:15.453Z,3.9
2023-10-18T06:42:15.459Z,4.9
2023-10-18T06:43:15.541Z,4.1
2023-10-18T06:44:15.456Z,5.1
2023-10-18T06:45:15.502Z,5.8
2023-10-18T06:46:15.569Z,5.3
2023-10-18T06:47:15.478Z,4.4
2023-10-18T06:48:15.484Z,5.1
2023-10-18T06:49:15.559Z,4.2
2023-10-18T06:50:18.322Z,3.4
2023-10-18T06:51:15.525Z,4.1
2023-10-18T06:52:17.805Z,3.8
2023-10-18T06:53:15.529Z,3.4
2023-10-18T06:54:15.493Z,5.5
2023-10-18T06:55:15.532Z,3.8
2023-10-18T06:56:15.471Z,4
2023-10-18T06:57:15.486Z,3.2
2023-10-18T06:58:15.531Z,3.4
2023-10-18T06:59:15.497Z,3.7
2023-10-18T07:00:15.462Z,4.9
2023-10-18T07:01:15.705Z,3.3
2023-10-18T07:02:15.512Z,3.9
2023-10-18T07:03:15.551Z,4.6
2023-10-18T07:04:15.525Z,4.8
2023-10-18T07:05:15.465Z,5.2
2023-10-18T07:06:15.483Z,4.7
2023-10-18T07:07:15.463Z,5.2
2023-10-18T07:08:15.496Z,5.4
2023-10-18T07:09:15.459Z,5.5
2023-10-18T07:10:15.502Z,5.6
2023-10-18T07:11:22.271Z,5
2023-10-18T07:12:15.468Z,5.2
2023-10-18T07:13:15.522Z,5.6
2023-10-18T07:14:15.469Z,5.4
2023-10-18T07:15:15.468Z,4.9
2023-10-18T07:16:15.697Z,5.1
2023-10-18T07:17:15.478Z,4.7
2023-10-18T07:18:15.469Z,5.4
2023-10-18T07:19:15.518Z,5.7
2023-10-18T07:20:15.503Z,5.7
2023-10-18T07:21:15.483Z,5.6
2023-10-18T07:22:15.524Z,4.7
2023-10-18T07:23:15.487Z,5.4
2023-10-18T07:24:15.477Z,6.2
2023-10-18T07:25:15.496Z,6
2023-10-18T07:26:15.468Z,6.2
2023-10-18T07:27:15.466Z,4.9
2023-10-18T07:28:15.501Z,5.4
2023-10-18T07:29:15.450Z,5.5
2023-10-18T07:30:15.715Z,5.4
2023-10-18T07:31:15.546Z,5.7
2023-10-18T07:32:15.535Z,7.2
2023-10-18T07:33:15.486Z,7.4
2023-10-18T07:34:15.508Z,6.9
2023-10-18T07:35:15.485Z,6.5
2023-10-18T07:36:15.468Z,6.6
2023-10-18T07:37:15.518Z,7.3
2023-10-18T07:38:17.905Z,6.2
2023-10-18T07:39:15.471Z,5.8
2023-10-18T07:40:15.510Z,6
2023-10-18T07:41:15.483Z,7.4
2023-10-18T07:42:15.497Z,7
2023-10-18T07:43:15.509Z,6.7
2023-10-18T07:44:15.481Z,5.7
2023-10-18T07:45:15.492Z,6.1
2023-10-18T07:46:15.499Z,7.1
2023-10-18T07:47:15.490Z,6.9
2023-10-18T07:48:15.494Z,6.7
2023-10-18T07:49:16.041Z,6
2023-10-18T07:50:15.497Z,5.8
2023-10-18T07:51:15.483Z,5.9
2023-10-18T07:52:15.503Z,6.9
2023-10-18T07:53:15.496Z,6.6
2023-10-18T07:54:15.482Z,7.7
2023-10-18T07:55:15.541Z,7.4
2023-10-18T07:56:15.464Z,6.4
2023-10-18T07:57:15.490Z,7
2023-10-18T07:58:15.475Z,6
2023-10-18T07:59:15.474Z,7.3
2023-10-18T08:00:15.490Z,6.2
2023-10-18T08:01:15.525Z,7
2023-10-18T08:02:15.466Z,7.1
2023-10-18T08:03:15.540Z,6.1
2023-10-18T08:04:15.676Z,6.1
2023-10-18T08:05:15.719Z,6.9
2023-10-18T08:06:15.548Z,8.3
2023-10-18T08:07:15.513Z,5.9
2023-10-18T08:08:15.464Z,7.7
2023-10-18T08:09:15.448Z,8.3
2023-10-18T08:10:15.517Z,7.4
2023-10-18T08:11:15.476Z,7.6
2023-10-18T08:12:15.497Z,7.5
2023-10-18T08:13:15.554Z,7.3
2023-10-18T08:14:15.484Z,7.8
2023-10-18T08:15:15.602Z,8.4
2023-10-18T08:16:15.507Z,7.3
2023-10-18T08:17:15.501Z,7.8
2023-10-18T08:18:15.450Z,6.9
2023-10-18T08:19:15.490Z,7.3
2023-10-18T08:20:15.491Z,6.3
2023-10-18T08:21:15.463Z,6.2
2023-10-18T08:22:15.465Z,6.7
2023-10-18T08:23:15.485Z,6.3
2023-10-18T08:24:15.478Z,7.6
2023-10-18T08:25:15.481Z,7.3
2023-10-18T08:26:15.497Z,6.4
2023-10-18T08:27:15.487Z,7.5
2023-10-18T08:28:15.562Z,7.3
2023-10-18T08:29:15.471Z,7.6
2023-10-18T08:30:15.470Z,9
2023-10-18T08:31:15.538Z,7.4
2023-10-18T08:32:15.540Z,7.8
2023-10-18T08:33:15.484Z,7.6
2023-10-18T08:34:15.597Z,8.3
2023-10-18T08:35:15.493Z,7.5
2023-10-18T08:36:15.497Z,9.8
2023-10-18T08:37:15.526Z,7.6
2023-10-18T08:38:15.496Z,7.4
2023-10-18T08:39:15.486Z,6.6
2023-10-18T08:40:15.548Z,7
2023-10-18T08:41:15.479Z,6.6
2023-10-18T08:42:15.500Z,6.4
2023-10-18T08:43:15.485Z,6.4
2023-10-18T08:44:15.467Z,6.6
2023-10-18T08:45:15.455Z,6.9
2023-10-18T08:46:15.524Z,7.2
2023-10-18T08:47:18.063Z,6.9
2023-10-18T08:48:15.512Z,7.4
2023-10-18T08:49:15.482Z,7.7
2023-10-18T08:50:15.471Z,6.8
2023-10-18T08:51:15.460Z,7.2
2023-10-18T15:36:15.481Z,8.4
2023-10-18T15:37:15.490Z,8.7
2023-10-18T15:38:15.523Z,8.6
2023-10-18T15:39:15.492Z,7.7
2023-10-18T15:40:15.466Z,9.3
2023-10-18T15:41:15.514Z,8.9
2023-10-18T15:42:15.445Z,8.4
2023-10-18T15:43:15.451Z,7.8
2023-10-18T15:44:15.468Z,8.1
2023-10-18T15:45:15.466Z,8.6
2023-10-18T15:46:15.562Z,9.3
2023-10-18T15:47:15.538Z,9.1
2023-10-18T15:48:15.500Z,8
2023-10-18T15:49:15.452Z,8.5
2023-10-18T15:50:15.525Z,8.5
2023-10-18T15:51:15.488Z,8.5
2023-10-18T15:52:15.447Z,8.5
2023-10-18T15:53:15.473Z,8.4
2023-10-18T15:54:15.487Z,8.9
2023-10-18T15:55:15.473Z,8.4
2023-10-18T15:56:15.511Z,8.1
2023-10-18T15:57:15.466Z,8.7
2023-10-18T15:58:15.455Z,8.6
2023-10-18T15:59:15.524Z,8.1
2023-10-18T16:00:15.461Z,9.5
2023-10-18T16:01:15.566Z,8.2
2023-10-18T16:02:15.629Z,8.2
2023-10-18T16:03:15.770Z,8.7
2023-10-18T16:04:15.595Z,8.8
2023-10-18T16:05:15.561Z,8.4
2023-10-18T16:06:15.587Z,8.3
2023-10-18T16:07:15.470Z,8.2
2023-10-18T16:08:15.482Z,8.9
2023-10-18T16:09:15.440Z,8.7
2023-10-18T16:10:15.460Z,8.8
2023-10-18T16:11:15.567Z,8
2023-10-18T16:12:15.462Z,8.5
2023-10-18T16:13:15.484Z,7.3
2023-10-18T16:14:15.528Z,7.6
2023-10-18T16:15:15.465Z,7.1
2023-10-18T16:16:15.584Z,7.7
2023-10-18T16:17:15.487Z,7.9
2023-10-18T16:18:15.533Z,8.6
2023-10-18T16:19:15.462Z,7.3
2023-10-18T16:20:15.523Z,7.4
2023-10-18T16:21:15.496Z,7.6
2023-10-18T16:22:15.500Z,7.5
2023-10-18T16:23:15.549Z,7.8
2023-10-18T16:24:15.479Z,7.2
2023-10-18T16:25:15.474Z,7.6
2023-10-18T16:26:15.512Z,8
2023-10-18T16:27:15.500Z,8.2
2023-10-18T16:28:15.496Z,8
2023-10-18T16:29:15.487Z,7.4
2023-10-18T16:30:15.472Z,8.3
2023-10-18T16:31:15.546Z,8.7
2023-10-18T16:32:15.538Z,6.9
2023-10-18T16:33:15.485Z,7.7
2023-10-18T16:34:15.477Z,7.5
2023-10-18T16:35:15.509Z,6.5
2023-10-18T16:36:15.436Z,8.5
2023-10-18T16:37:15.481Z,8.3
2023-10-18T16:38:15.540Z,7.7
2023-10-18T16:39:15.484Z,7
2023-10-18T16:40:15.483Z,7.6
2023-10-18T16:41:15.498Z,7
2023-10-18T16:42:15.484Z,7.8
2023-10-18T16:43:15.447Z,6.9
2023-10-18T16:44:15.592Z,7.2
2023-10-18T16:45:15.486Z,6.4
2023-10-18T16:46:15.571Z,6.6
2023-10-18T16:47:15.507Z,7.5
2023-10-18T16:48:15.529Z,7.1
2023-10-18T16:49:15.438Z,6.9
2023-10-18T16:50:15.523Z,7.1
2023-10-18T16:51:15.470Z,7.8
2023-10-18T16:52:15.483Z,6.9
2023-10-18T16:53:15.512Z,7.3
2023-10-18T16:54:15.480Z,8.3
2023-10-18T16:55:15.449Z,7.8
2023-10-18T16:56:15.659Z,7.7
2023-10-18T16:57:15.432Z,7.8
2023-10-18T16:58:15.488Z,7.8
2023-10-18T16:59:15.500Z,6.8
2023-10-18T17:00:15.475Z,7.6
2023-10-18T17:01:15.513Z,8.8
2023-10-18T17:02:15.461Z,7.6
2023-10-18T17:03:15.590Z,6.8
2023-10-18T17:04:15.583Z,7.5
2023-10-18T17:05:15.518Z,7.7
2023-10-18T17:06:15.475Z,8
2023-10-18T17:07:15.480Z,8.1
2023-10-18T17:08:15.799Z,8.2
2023-10-18T17:09:15.471Z,7.7
2023-10-18T17:10:15.480Z,7.9
2023-10-18T17:11:15.664Z,7.6
2023-10-18T17:12:15.485Z,7.5
2023-10-18T17:13:15.486Z,7.3
2023-10-18T17:14:15.481Z,7.5
2023-10-18T17:15:15.491Z,9
2023-10-18T17:16:15.575Z,7.4
2023-10-18T17:17:15.591Z,8.1
2023-10-18T17:18:15.551Z,7
2023-10-18T17:19:15.450Z,7.6
2023-10-18T17:20:15.464Z,7.9
2023-10-18T17:21:19.658Z,7.4
2023-10-18T17:22:15.485Z,7.7
2023-10-18T17:23:15.500Z,7.1
2023-10-18T17:24:15.483Z,7.2
2023-10-18T17:25:15.484Z,7.8
2023-10-18T17:26:15.555Z,8.2
2023-10-18T17:27:15.468Z,7.9
2023-10-18T17:28:15.464Z,9
2023-10-18T17:29:15.470Z,8.1
2023-10-18T17:30:15.413Z,7.1
2023-10-18T17:31:15.490Z,7.5
2023-10-18T17:32:15.572Z,8.2
2023-10-18T17:33:15.502Z,7.8
2023-10-18T17:34:15.496Z,6.7
2023-10-18T17:35:15.503Z,7.3
2023-10-18T17:36:15.484Z,8.2
2023-10-18T17:37:15.475Z,8.5
2023-10-18T17:38:15.491Z,8.2
2023-10-18T17:39:15.489Z,7.3
2023-10-18T17:40:15.495Z,7.4
2023-10-18T17:41:15.579Z,7.6
2023-10-18T17:42:15.490Z,7.3
2023-10-18T17:43:15.487Z,8.1
2023-10-18T17:44:15.482Z,8.6
2023-10-18T17:45:15.460Z,7.5
2023-10-18T17:46:15.731Z,7.9
2023-10-18T17:47:15.492Z,8.1
2023-10-18T17:48:15.558Z,8
2023-10-18T17:49:15.483Z,8.8
2023-10-18T17:50:15.567Z,7.6
2023-10-18T17:51:15.447Z,7.5
2023-10-18T17:52:15.467Z,7.5
2023-10-18T17:53:15.916Z,6.3
2023-10-18T17:54:15.483Z,7.8
2023-10-18T17:55:15.469Z,6.4
2023-10-18T17:56:15.484Z,8
2023-10-18T17:57:15.445Z,6.8
2023-10-18T17:58:15.496Z,7.9
2023-10-18T17:59:15.555Z,7
2023-10-18T18:00:15.467Z,7.1
2023-10-18T18:01:15.487Z,7
2023-10-18T18:02:15.555Z,7.2
2023-10-18T18:03:15.916Z,7.7
2023-10-18T18:04:15.457Z,7.2
2023-10-18T18:05:15.436Z,8.7
2023-10-18T18:06:15.468Z,7.3
2023-10-18T18:07:15.475Z,6.9
2023-10-18T18:08:17.706Z,7.6
2023-10-18T18:09:15.464Z,7
2023-10-18T18:10:15.470Z,7.3
2023-10-18T18:11:15.496Z,8.1
2023-10-18T18:12:15.484Z,6.9
2023-10-18T18:13:15.484Z,7
2023-10-18T18:14:15.483Z,7
2023-10-18T18:15:15.450Z,7.2
2023-10-18T18:16:15.726Z,7
2023-10-18T18:17:15.532Z,7.3
2023-10-18T18:18:15.522Z,7.6
2023-10-18T18:19:15.460Z,7.2
2023-10-18T18:20:15.486Z,7.1
2023-10-18T18:21:15.479Z,7.2
2023-10-18T18:22:15.515Z,7.4
2023-10-18T18:23:15.488Z,7.6
2023-10-18T18:24:15.475Z,7.1
2023-10-18T18:25:15.450Z,7.2
2023-10-18T18:26:15.501Z,6.3
2023-10-18T18:27:15.493Z,6
2023-10-18T18:28:15.497Z,7.2
2023-10-18T18:29:15.478Z,7.5
2023-10-18T18:30:15.484Z,6.5
2023-10-18T18:31:15.486Z,7.3
2023-10-18T18:32:15.480Z,6.4
2023-10-18T18:33:15.525Z,7.8
2023-10-18T18:34:15.456Z,7.5
2023-10-18T18:35:15.513Z,7.3
2023-10-18T18:36:15.451Z,7
2023-10-18T18:37:15.510Z,7.4
2023-10-18T18:38:15.498Z,6.3
2023-10-18T18:39:15.470Z,6.6
2023-10-18T18:40:15.479Z,7.2
2023-10-18T18:41:15.569Z,7.7
2023-10-18T18:42:15.488Z,8.1
2023-10-18T18:43:15.486Z,7.8
2023-10-18T18:44:15.512Z,7.9
2023-10-18T18:45:15.534Z,7
2023-10-18T18:46:23.921Z,7.8
2023-10-18T18:47:15.530Z,6.7
2023-10-18T18:48:15.522Z,8.5
2023-10-18T18:49:15.500Z,7
2023-10-18T18:50:15.667Z,6.7
2023-10-18T18:51:15.485Z,7.6
2023-10-18T18:52:15.487Z,6.8
2023-10-18T18:53:15.512Z,7
2023-10-18T18:54:15.490Z,7.7
2023-10-18T18:55:15.798Z,7.9
2023-10-18T18:56:15.498Z,7.9
2023-10-18T18:57:15.469Z,7.8
2023-10-18T18:58:15.463Z,7.4
2023-10-18T18:59:15.505Z,9
2023-10-18T19:00:15.522Z,8.3
2023-10-18T19:01:15.482Z,7.6
2023-10-18T19:02:15.500Z,8.3
2023-10-18T19:03:15.626Z,9.1
2023-10-18T19:04:15.567Z,7.9
2023-10-18T19:05:15.596Z,7.5
2023-10-18T19:06:15.499Z,7.7
2023-10-18T19:07:15.489Z,7.4
2023-10-18T19:08:15.502Z,7.9
2023-10-18T19:09:15.491Z,7.8
2023-10-18T19:10:15.496Z,7.5
2023-10-18T19:11:15.520Z,7.9
2023-10-18T19:12:15.473Z,7.4
2023-10-18T19:13:15.493Z,8.5
2023-10-18T19:14:15.519Z,7.5
2023-10-18T19:15:16.950Z,7.2
2023-10-18T19:16:15.488Z,7.6
2023-10-18T19:17:15.448Z,6.8
2023-10-18T19:18:15.489Z,7
2023-10-18T19:19:15.484Z,7.4
2023-10-18T19:20:15.520Z,6.6
2023-10-18T19:21:15.482Z,7.6
2023-10-18T19:22:15.475Z,7.2
2023-10-18T19:23:15.498Z,7.2
2023-10-18T19:24:15.470Z,7.9
2023-10-18T19:25:15.493Z,7.7
2023-10-18T19:26:15.471Z,7.5
2023-10-18T19:27:15.471Z,7.1
2023-10-18T19:28:15.497Z,7.5
2023-10-18T19:29:15.538Z,7.6
2023-10-18T19:30:15.497Z,7.4
2023-10-18T19:31:15.484Z,7.6
2023-10-18T19:32:15.623Z,7.6
2023-10-18T19:33:15.534Z,7.8
2023-10-18T19:34:15.452Z,7.5
2023-10-18T19:35:15.512Z,7.5
2023-10-18T19:36:15.494Z,7.3
2023-10-18T19:37:15.474Z,8.2
2023-10-18T19:38:15.548Z,7
2023-10-18T19:39:15.457Z,7.6
2023-10-18T19:40:15.472Z,8.1
2023-10-18T19:41:15.549Z,8.3
2023-10-18T19:42:15.509Z,8.3
2023-10-18T19:43:15.501Z,7.8
2023-10-18T19:44:15.569Z,8.1
2023-10-18T19:45:15.487Z,7.4
2023-10-18T19:46:15.539Z,7.5
2023-10-18T19:47:15.630Z,7.3
2023-10-18T19:48:15.600Z,7.8
2023-10-18T19:49:15.454Z,7.3
2023-10-18T19:50:15.511Z,7.9
2023-10-18T19:51:15.459Z,7.6
2023-10-18T19:52:15.501Z,8.2
2023-10-18T19:53:15.561Z,8
2023-10-18T19:54:15.496Z,7.4
2023-10-18T19:55:15.508Z,7.2
2023-10-18T19:56:15.504Z,7.8
2023-10-18T19:57:15.447Z,7.8
2023-10-18T19:58:15.482Z,8.4
2023-10-18T19:59:15.514Z,8.6
2023-10-18T20:00:15.502Z,7.1
2023-10-18T20:01:15.534Z,8.7
2023-10-18T20:02:15.513Z,9
2023-10-18T20:03:15.646Z,8
2023-10-18T20:04:15.599Z,8.1
2023-10-18T20:05:15.652Z,8.2
2023-10-18T20:06:16.765Z,8.3
2023-10-18T20:07:15.484Z,8.4
2023-10-18T20:08:15.517Z,8.9
2023-10-18T20:09:15.503Z,8.8
2023-10-18T20:10:15.496Z,9
2023-10-18T20:11:15.541Z,8.4
2023-10-18T20:12:15.491Z,7.7
2023-10-18T20:13:15.495Z,8.3
2023-10-18T20:14:15.551Z,8.6
2023-10-18T20:15:15.468Z,7.3
2023-10-18T20:16:15.492Z,8.1
2023-10-18T20:17:15.505Z,7.6
2023-10-18T20:18:15.550Z,7.8
2023-10-18T20:19:15.470Z,7.3
2023-10-18T20:20:15.510Z,7.9
2023-10-18T20:21:15.460Z,8.2
2023-10-18T20:22:15.445Z,7.7
2023-10-18T20:23:15.497Z,7.4
2023-10-18T20:24:15.462Z,8.3
2023-10-18T20:25:15.493Z,7.6
2023-10-18T20:26:15.450Z,8.8
2023-10-18T20:27:15.465Z,8.1
2023-10-18T20:28:15.461Z,8.1
2023-10-18T20:29:15.552Z,9.3
2023-10-18T20:30:15.472Z,8
2023-10-18T20:31:15.506Z,8.2
2023-10-18T20:32:15.530Z,7.8
2023-10-18T20:33:15.599Z,7.2
2023-10-18T20:34:15.537Z,7.8
2023-10-18T20:35:15.475Z,9.1
2023-10-18T20:36:15.495Z,8.1